Etusivu
METAR-TAF:

METAR-TAF

Lentoasemat :

Monticello Regional Airport

Monticello, Iowa, Yhdysvallat

Leveyspiiri: 42-14N, Pituuspiiri: 091-10W, korkeus merenpinnasta: 259 m

Tämänhetkinen sää

Tämä raportti tehtiin 28 minuuttia sitten, kello 20.15 UTC
Tuuli 17 kn pohjoisen/luoteesta
Lämpötila -1°C
Kosteus 59%
Ilmanpaine 1022 hPa
Näkyvyys: 16.1 km
Pilvistä 3700 ft:n korkeudessa

METAR: KMXO 262015Z AUTO 33017KT 10SM OVC037 M01/M08 A3017 RMK AO2

Aika: 14:43 (20:43 UTC)


TAF: puuttuu

Säähavainnot ja -ennusteet yli 4000 lentoasemalta (METAR- ja TAF-raportit).

Käytössä olevat sääasemat on merkitty karttaan keltaisilla ja punaisilla pisteillä.

Aseta hiiri pisteen päälle nähdäksesi sääaseman nimen.

Klikkaa sitten nähdäksesi säähavainnot ja -ennusteet.

Kartan vaihtaminen: klikkaa mustalla rastilla varustettuja vihreitä pisteitä, niin voit zoomata sisään; viivalla varustettua vihreää pistettä, niin voit zoomata ulos tai vihreitä nuolia, niin pääset viereisille kartoille.


METAR-TAF: